EDHK/KEL METAR and TAF weather

Enter ICAO airport designator
Station Type Date Time Source
EDHK METAR 2019/12/07 09:50 UTC NOAA

EDHK 070950Z 26010KT 9999 FEW022 SCT070 08/06 Q1003


Station Type Date Time Source
EDHK Decoded METAR 2019/12/07 09:50 UTC NOAA

Kiel / Holtenau Civilian, Germany (EDHK) 54-23N 010-10E
Dec 07, 2019 - 04:50 AM EST / 2019.12.07 0950 UTC
Wind: from the W (260 degrees) at 12 MPH (10 KT):0
Visibility: greater than 7 mile(s):0
Sky conditions: partly cloudy
Temperature: 46 F (8 C)
Dew Point: 42 F (6 C)
Relative Humidity: 87%
Pressure (altimeter): 29.62 in. Hg (1003 hPa)
ob: EDHK 070950Z 26010KT 9999 FEW022 SCT070 08/06 Q1003
cycle: 10

Station Type Date Time Source
EDHK TAF 2013/08/11 06:39 UTC NOAA

TAF EDHK 110633Z 1106/1118 24005KT 9999 SCT030
BECMG 1106/1109 25010KT
TEMPO 1106/1118 27015G25KT 4500 SHRA BKN012CB

Example: see airport list